Time;durP1;ratioP1;P1;durP2;ratioP2;P2;SDS_P1;SDS_P2;PMS_P1;PMS_P2;Temp;Humidity;BMP_temperature;BMP_pressure;BME280_temperature;BME280_humidity;BME280_pressure;Samples;Min_cycle;Max_cycle;Signal;HPM_P1;HPM_P2
2021/09/06 00:00:38;;;;;;;3.30;2.50;;;;;;;6.63;75.35;99556.72;5134151;27;20035;-61
2021/09/06 00:03:04;;;;;;;4.97;2.40;;;;;;;6.60;75.62;99557.94;5134188;27;20039;-60
2021/09/06 00:05:30;;;;;;;5.32;2.88;;;;;;;6.61;75.79;99553.50;5134056;27;20051;-60
2021/09/06 00:07:56;;;;;;;6.38;3.00;;;;;;;6.67;75.30;99557.13;5134193;27;20126;-60
2021/09/06 00:10:43;;;;;;;5.85;2.67;;;;;;;6.66;75.27;99558.16;5134595;27;20051;-60
2021/09/06 00:13:12;;;;;;;2.92;2.40;;;;;;;6.67;75.79;99557.91;5132932;27;20118;-59
2021/09/06 00:15:38;;;;;;;4.78;2.53;;;;;;;6.61;75.66;99553.50;5134009;27;20070;-59
2021/09/06 00:18:05;;;;;;;4.07;2.10;;;;;;;6.62;75.22;99563.03;5133744;27;20069;-59
2021/09/06 00:20:32;;;;;;;5.47;2.60;;;;;;;6.67;75.72;99554.50;5133839;27;20047;-60
2021/09/06 00:22:58;;;;;;;2.92;2.28;;;;;;;6.59;74.87;99558.97;5132825;27;20035;-60
2021/09/06 00:25:23;;;;;;;3.25;2.10;;;;;;;6.57;75.13;99561.00;5134249;27;20058;-59
2021/09/06 00:27:49;;;;;;;2.97;2.42;;;;;;;6.54;75.43;99558.78;5133229;27;20046;-60
2021/09/06 00:30:16;;;;;;;3.55;2.40;;;;;;;6.49;75.57;99563.03;5134105;27;20039;-60
2021/09/06 00:32:41;;;;;;;3.40;1.98;;;;;;;6.42;75.00;99564.91;5115491;27;20469;-58
2021/09/06 00:35:08;;;;;;;2.63;2.05;;;;;;;6.32;75.76;99558.25;5134054;27;20050;-59
2021/09/06 00:37:33;;;;;;;4.03;2.15;;;;;;;6.26;75.82;99560.84;5132226;27;20074;-59
2021/09/06 00:39:59;;;;;;;3.08;2.22;;;;;;;6.21;75.54;99560.69;5098459;27;20081;-59
2021/09/06 00:42:25;;;;;;;3.45;3.08;;;;;;;6.10;76.01;99555.00;5133597;27;20038;-60
2021/09/06 00:44:52;;;;;;;3.05;1.95;;;;;;;6.09;76.06;99563.94;5098021;27;20058;-59
2021/09/06 00:47:18;;;;;;;5.30;2.38;;;;;;;6.04;75.48;99561.09;5132067;27;20035;-59
2021/09/06 00:49:43;;;;;;;7.68;3.50;;;;;;;6.00;75.76;99566.94;5132143;27;20057;-61
2021/09/06 00:52:09;;;;;;;4.88;3.17;;;;;;;5.96;75.37;99568.38;5131905;27;20035;-59
2021/09/06 00:54:35;;;;;;;5.47;4.10;;;;;;;5.91;76.09;99559.25;5131951;27;20138;-59
2021/09/06 00:57:01;;;;;;;5.53;4.00;;;;;;;5.88;75.70;99562.28;5131798;27;20543;-60
2021/09/06 00:59:28;;;;;;;4.57;3.95;;;;;;;5.89;75.70;99563.91;5115160;27;20043;-58
2021/09/06 01:01:55;;;;;;;8.10;6.20;;;;;;;5.89;76.16;99569.16;5114876;27;20038;-58
2021/09/06 01:04:22;;;;;;;6.13;4.28;;;;;;;5.92;75.11;99562.69;5133192;27;20079;-59
2021/09/06 01:07:26;;;;;;;4.38;3.05;;;;;;;5.92;75.63;99566.13;5109975;28;20035;-59
2021/09/06 01:10:07;;;;;;;6.55;4.07;;;;;;;5.91;75.12;99569.78;5092948;28;20543;-60
2021/09/06 01:12:48;;;;;;;5.72;3.60;;;;;;;5.93;74.77;99572.22;5117691;27;20047;-59
2021/09/06 01:15:13;;;;;;;7.18;4.38;;;;;;;5.90;75.18;99567.34;5132604;27;20039;-61
2021/09/06 01:17:42;;;;;;;4.55;3.72;;;;;;;5.92;74.89;99568.75;5114361;27;20051;-60
2021/09/06 01:20:11;;;;;;;6.57;4.28;;;;;;;5.90;74.71;99572.59;5131812;27;20392;-59
2021/09/06 01:22:40;;;;;;;;;;;;;;;5.90;75.14;99576.03;5131928;27;20081;-60
2021/09/06 01:25:17;;;;;;;5.90;4.68;;;;;;;5.84;75.30;99573.41;5131622;27;19923;-60
2021/09/06 01:27:45;;;;;;;8.32;5.10;;;;;;;5.82;75.07;99570.16;5114380;27;20039;-60
2021/09/06 01:30:13;;;;;;;4.97;3.50;;;;;;;5.79;75.62;99581.88;5131592;27;20047;-60
2021/09/06 01:32:39;;;;;;;4.43;2.85;;;;;;;5.74;75.60;99575.63;5114134;27;20061;-58
2021/09/06 01:35:06;;;;;;;9.45;5.70;;;;;;;5.70;76.31;99577.84;5131499;27;20043;-59
2021/09/06 01:37:33;;;;;;;9.68;3.80;;;;;;;5.67;76.45;99576.41;5130708;27;20054;-59
2021/09/06 01:40:00;;;;;;;11.27;5.25;;;;;;;5.63;76.74;99579.66;5131003;27;20039;-59
2021/09/06 01:42:26;;;;;;;10.82;5.97;;;;;;;5.55;77.11;99577.22;5131105;27;20534;-58
2021/09/06 01:44:56;;;;;;;8.10;4.28;;;;;;;5.50;77.80;99580.47;5131400;27;20137;-59
2021/09/06 01:47:27;;;;;;;7.07;4.18;;;;;;;5.41;77.72;99579.84;5131047;27;20035;-60
2021/09/06 01:49:53;;;;;;;3.75;2.88;;;;;;;5.34;78.76;99573.72;5114241;28;20141;-59
2021/09/06 01:52:21;;;;;;;3.75;2.78;;;;;;;5.31;78.68;99578.59;5131087;28;20040;-59
2021/09/06 01:54:49;;;;;;;6.47;3.58;;;;;;;5.28;78.75;99579.78;5131282;28;20054;-60
2021/09/06 01:57:15;;;;;;;5.80;4.32;;;;;;;5.20;79.61;99579.94;5132404;27;20039;-59
2021/09/06 01:59:41;;;;;;;5.80;3.80;;;;;;;5.17;79.56;99591.66;5131244;28;20055;-58
2021/09/06 02:02:07;;;;;;;6.20;3.83;;;;;;;5.12;79.35;99588.03;5131045;27;20698;-58
2021/09/06 02:04:39;;;;;;;7.03;3.20;;;;;;;5.08;79.72;99584.97;5113870;28;20078;-58
2021/09/06 02:07:06;;;;;;;4.85;2.78;;;;;;;5.07;80.20;99595.69;5132210;27;20043;-60
2021/09/06 02:09:32;;;;;;;4.00;2.88;;;;;;;5.00;79.38;99582.53;5130961;28;20058;-59
2021/09/06 02:12:01;;;;;;;6.35;2.67;;;;;;;5.00;80.00;99590.41;5130850;28;20130;-58
2021/09/06 02:14:32;;;;;;;3.10;2.35;;;;;;;4.95;80.46;99585.72;5131198;28;20488;-58
2021/09/06 02:16:58;;;;;;;4.28;3.40;;;;;;;4.94;79.69;99589.38;5113502;28;20088;-59
2021/09/06 02:19:34;;;;;;;7.47;3.50;;;;;;;4.91;79.99;99589.78;5130594;28;20134;-59
2021/09/06 02:22:01;;;;;;;3.45;2.90;;;;;;;4.89;80.66;99585.72;5130481;27;20043;-59
2021/09/06 02:24:30;;;;;;;4.90;3.67;;;;;;;4.90;80.15;99589.94;5130860;28;20043;-59
2021/09/06 02:27:05;;;;;;;6.93;4.00;;;;;;;4.86;80.32;99596.59;5130734;27;20043;-60
2021/09/06 02:29:32;;;;;;;5.38;3.90;;;;;;;4.83;81.01;99591.75;5130598;27;20051;-59
2021/09/06 02:32:12;;;;;;;7.53;4.57;;;;;;;4.81;80.50;99583.25;5130688;28;20050;-59
2021/09/06 02:34:51;;;;;;;8.48;5.40;;;;;;;4.79;80.45;99593.94;5113857;28;20176;-58
2021/09/06 02:37:18;;;;;;;8.13;5.72;;;;;;;4.78;81.30;99592.31;5132047;27;20170;-59
2021/09/06 02:39:45;;;;;;;7.60;5.53;;;;;;;4.76;81.38;99604.81;5113535;28;20046;-59
2021/09/06 02:42:13;;;;;;;7.15;3.63;;;;;;;4.71;81.55;99594.91;5130467;28;20043;-58
2021/09/06 02:44:39;;;;;;;5.65;2.78;;;;;;;4.68;81.17;99590.06;5132267;27;20051;-58
2021/09/06 02:47:06;;;;;;;3.53;2.60;;;;;;;4.70;81.46;99605.59;5130426;28;20058;-60
2021/09/06 02:49:32;;;;;;;3.78;2.50;;;;;;;4.71;81.57;99599.38;5131247;27;20582;-60
2021/09/06 02:52:01;;;;;;;8.23;3.30;;;;;;;4.74;81.26;99602.41;5134321;27;20043;-59
2021/09/06 02:54:28;;;;;;;3.45;2.67;;;;;;;4.74;81.47;99612.91;5134396;27;20073;-59
2021/09/06 02:56:54;;;;;;;4.50;3.25;;;;;;;4.68;81.45;99605.81;5117064;27;20031;-59
2021/09/06 02:59:21;;;;;;;6.03;3.13;;;;;;;4.72;81.45;99614.91;5134310;27;20391;-58
2021/09/06 03:01:48;;;;;;;3.95;2.78;;;;;;;4.71;81.41;99615.13;5134081;27;20039;-59
2021/09/06 03:04:14;;;;;;;5.15;2.83;;;;;;;4.72;81.68;99612.28;5117192;27;20070;-59
2021/09/06 03:06:40;;;;;;;5.35;2.80;;;;;;;4.78;82.25;99610.69;5133940;27;20051;-59
2021/09/06 03:09:08;;;;;;;5.35;2.88;;;;;;;4.86;81.72;99620.25;5133947;27;20054;-60
2021/09/06 03:11:34;;;;;;;4.47;2.70;;;;;;;4.94;81.34;99620.06;5135341;27;20028;-59
2021/09/06 03:14:01;;;;;;;4.25;2.65;;;;;;;5.14;80.76;99620.16;5134179;27;20099;-59
2021/09/06 03:16:27;;;;;;;3.67;2.90;;;;;;;5.35;79.70;99624.47;5134035;27;20484;-59
2021/09/06 03:18:57;;;;;;;3.17;2.22;;;;;;;5.58;79.10;99614.44;5134034;27;20039;-59
2021/09/06 03:21:49;;;;;;;5.03;2.70;;;;;;;5.83;77.83;99627.03;5134201;27;20412;-59
2021/09/06 03:24:18;;;;;;;4.63;2.78;;;;;;;6.00;77.18;99623.03;5133771;27;20047;-58
2021/09/06 03:26:44;;;;;;;3.67;2.53;;;;;;;6.23;76.61;99630.50;5133548;27;20050;-60
2021/09/06 03:29:10;;;;;;;4.53;2.40;;;;;;;6.48;75.36;99629.91;5133484;27;20050;-57
2021/09/06 03:31:36;;;;;;;4.50;3.00;;;;;;;6.60;74.50;99618.53;5133453;27;20568;-58
2021/09/06 03:34:02;;;;;;;4.45;1.98;;;;;;;6.81;73.82;99629.84;5135130;27;20043;-59
2021/09/06 03:36:28;;;;;;;3.67;2.10;;;;;;;6.99;72.96;99631.81;5116017;27;20423;-59
2021/09/06 03:38:55;;;;;;;6.93;2.47;;;;;;;7.11;72.15;99638.06;5133154;27;20118;-61
2021/09/06 03:41:25;;;;;;;;;;;;;;;7.28;71.98;99630.50;5133748;27;20039;-59
2021/09/06 03:43:51;;;;;;;3.38;2.53;;;;;;;7.37;71.42;99634.50;5116401;27;19923;-60
2021/09/06 03:46:18;;;;;;;3.50;2.28;;;;;;;7.56;70.81;99637.25;5133311;27;20121;-59
2021/09/06 03:48:46;;;;;;;3.72;2.35;;;;;;;7.73;70.20;99641.00;5116390;27;20096;-60
2021/09/06 03:51:12;;;;;;;6.43;2.40;;;;;;;7.87;69.56;99641.72;5134624;27;20089;-61
2021/09/06 03:53:38;;;;;;;4.55;2.67;;;;;;;8.05;68.55;99641.00;5133031;27;20055;-59
2021/09/06 03:56:04;;;;;;;4.20;2.40;;;;;;;8.23;68.50;99643.69;5134679;27;20381;-59
2021/09/06 03:58:36;;;;;;;3.85;2.42;;;;;;;8.35;68.28;99647.28;5132407;27;20054;-59
2021/09/06 04:01:02;;;;;;;3.45;2.20;;;;;;;8.48;67.07;99646.38;5132104;27;20639;-61
2021/09/06 04:03:29;;;;;;;7.53;2.40;;;;;;;8.67;66.41;99649.84;5132699;27;20061;-59
2021/09/06 04:05:56;;;;;;;4.40;2.42;;;;;;;8.86;66.15;99655.97;5132691;27;20058;-60
2021/09/06 04:08:24;;;;;;;2.67;2.15;;;;;;;8.96;66.34;99645.69;5133918;27;20416;-59
2021/09/06 04:10:51;;;;;;;8.45;2.50;;;;;;;9.04;65.11;99650.69;5115575;27;20058;-60
2021/09/06 04:13:20;;;;;;;3.30;2.60;;;;;;;9.08;65.39;99653.69;5132560;27;20043;-60
2021/09/06 04:15:47;;;;;;;5.70;2.85;;;;;;;9.07;65.36;99658.16;5098501;27;20336;-60
2021/09/06 04:18:15;;;;;;;6.30;2.40;;;;;;;8.97;65.58;99647.31;5132636;27;20031;-60
2021/09/06 04:20:41;;;;;;;7.10;2.50;;;;;;;8.78;65.65;99635.91;5132522;27;20063;-60
2021/09/06 04:23:07;;;;;;;6.32;2.10;;;;;;;8.76;66.21;99650.38;5115036;27;20054;-60
2021/09/06 04:25:33;;;;;;;4.50;2.08;;;;;;;8.64;66.10;99648.44;5115456;27;20035;-61
2021/09/06 04:28:01;;;;;;;6.95;2.42;;;;;;;8.69;66.62;99644.34;5132187;27;20045;-59
2021/09/06 04:30:27;;;;;;;4.20;2.42;;;;;;;8.74;66.23;99650.59;5115439;27;20063;-60
2021/09/06 04:32:53;;;;;;;3.85;2.20;;;;;;;8.73;67.02;99643.69;5132558;27;20131;-59
2021/09/06 04:35:19;;;;;;;6.03;2.20;;;;;;;8.72;66.88;99644.72;5132302;27;20043;-60
2021/09/06 04:37:46;;;;;;;4.30;2.38;;;;;;;8.73;66.47;99656.09;5131868;27;20050;-62
2021/09/06 04:40:17;;;;;;;3.17;2.17;;;;;;;8.68;66.79;99648.84;5133596;27;20413;-60
2021/09/06 04:42:46;;;;;;;4.30;1.85;;;;;;;8.63;66.97;99648.66;5131633;27;20069;-60
2021/09/06 04:45:11;;;;;;;3.28;2.35;;;;;;;8.60;67.10;99660.47;5131642;27;20039;-59
2021/09/06 04:47:40;;;;;;;5.00;2.15;;;;;;;8.55;67.60;99651.59;5131832;27;20039;-59
2021/09/06 04:50:07;;;;;;;2.42;1.58;;;;;;;8.48;67.49;99654.28;5131729;27;20057;-58
2021/09/06 04:52:33;;;;;;;3.30;2.05;;;;;;;8.32;68.02;99654.78;5114559;27;20126;-58
2021/09/06 04:55:02;;;;;;;4.50;1.90;;;;;;;8.22;68.28;99654.50;5131954;27;20039;-62
2021/09/06 04:57:28;;;;;;;5.30;2.08;;;;;;;8.15;68.98;99652.72;5132708;27;20042;-60
2021/09/06 04:59:54;;;;;;;3.20;1.92;;;;;;;8.14;68.84;99663.47;5114558;27;20475;-59
2021/09/06 05:02:20;;;;;;;2.78;1.98;;;;;;;8.09;69.38;99652.75;5133058;27;20488;-58
2021/09/06 05:04:46;;;;;;;6.95;2.00;;;;;;;8.06;69.81;99659.28;5097325;27;20059;-58
2021/09/06 05:07:12;;;;;;;3.70;1.80;;;;;;;8.08;69.56;99659.06;5132936;27;20046;-59
2021/09/06 05:09:38;;;;;;;4.72;1.90;;;;;;;8.09;70.56;99660.66;5132028;27;20058;-58
2021/09/06 05:12:05;;;;;;;5.57;2.67;;;;;;;8.09;69.26;99660.66;5131196;27;20087;-58
2021/09/06 05:14:35;;;;;;;8.48;2.20;;;;;;;8.16;69.95;99664.06;5126001;27;20503;-59
2021/09/06 05:17:02;;;;;;;3.67;2.10;;;;;;;8.21;68.89;99664.25;5119795;27;20391;-59
2021/09/06 05:19:28;;;;;;;3.83;2.13;;;;;;;8.19;69.17;99672.38;5107021;28;20047;-59
2021/09/06 05:21:55;;;;;;;2.58;1.85;;;;;;;8.17;69.29;99668.31;5108738;28;20040;-59
2021/09/06 05:24:21;;;;;;;5.22;1.80;;;;;;;8.12;68.79;99665.53;5107313;28;20488;-58
2021/09/06 05:26:47;;;;;;;4.68;2.20;;;;;;;8.13;69.11;99667.94;5091025;28;20087;-58
2021/09/06 05:29:13;;;;;;;2.67;1.77;;;;;;;8.20;68.84;99678.44;5107011;28;20055;-58
2021/09/06 05:31:39;;;;;;;2.53;1.88;;;;;;;8.20;68.69;99678.44;5107329;28;20547;-58
2021/09/06 05:34:05;;;;;;;4.25;2.53;;;;;;;8.18;68.70;99676.03;5107968;28;20048;-59
2021/09/06 05:36:30;;;;;;;3.30;1.92;;;;;;;8.27;68.55;99684.50;5107814;28;20063;-59
2021/09/06 05:38:58;;;;;;;2.72;1.90;;;;;;;8.37;69.25;99671.63;5110221;28;20522;-59
2021/09/06 05:41:25;;;;;;;3.38;2.05;;;;;;;8.47;68.34;99678.28;5108034;28;20050;-61
2021/09/06 05:43:51;;;;;;;3.28;1.90;;;;;;;8.52;67.79;99675.81;5108489;28;20055;-59
2021/09/06 05:46:19;;;;;;;9.82;4.18;;;;;;;8.59;68.51;99685.31;5107641;28;20036;-60
2021/09/06 05:48:45;;;;;;;5.05;2.28;;;;;;;8.57;67.45;99675.97;5107044;28;20096;-61
2021/09/06 05:51:12;;;;;;;4.45;2.28;;;;;;;8.63;68.17;99678.53;5089780;28;20120;-60
2021/09/06 05:53:57;;;;;;;4.70;2.40;;;;;;;8.71;66.94;99682.75;5105535;28;20047;-61
2021/09/06 05:56:24;;;;;;;3.47;2.50;;;;;;;8.72;66.89;99683.56;5106015;28;20039;-59
2021/09/06 05:58:53;;;;;;;5.35;2.35;;;;;;;8.74;66.77;99670.94;5089293;28;20040;-59
2021/09/06 06:01:20;;;;;;;6.07;3.53;;;;;;;8.84;66.61;99687.91;5104646;28;20047;-59
2021/09/06 06:03:46;;;;;;;4.53;2.47;;;;;;;8.91;66.83;99687.03;5105789;28;20080;-60
2021/09/06 06:06:18;;;;;;;4.22;1.95;;;;;;;8.91;66.98;99692.31;5106810;28;20043;-60
2021/09/06 06:08:46;;;;;;;6.28;1.80;;;;;;;8.95;67.63;99694.31;5090037;28;20052;-58
2021/09/06 06:11:12;;;;;;;2.78;1.88;;;;;;;9.01;64.97;99692.63;5108434;28;20453;-61
2021/09/06 06:13:38;;;;;;;3.10;2.08;;;;;;;9.03;63.96;99690.56;5107589;28;20107;-58
2021/09/06 06:16:04;;;;;;;5.57;2.05;;;;;;;9.04;64.34;99698.28;5107881;28;20084;-60
2021/09/06 06:18:33;;;;;;;3.60;1.95;;;;;;;9.08;64.76;99703.94;5105935;28;20039;-60
2021/09/06 06:21:00;;;;;;;4.28;2.15;;;;;;;9.10;64.27;99701.88;5108221;28;20032;-59
2021/09/06 06:23:30;;;;;;;3.50;1.98;;;;;;;9.16;64.62;99700.19;5072985;28;20058;-58
2021/09/06 06:26:09;;;;;;;2.85;2.00;;;;;;;9.24;63.98;99694.63;5111443;28;20583;-56
2021/09/06 06:28:36;;;;;;;3.30;1.98;;;;;;;9.26;63.20;99696.00;5093418;28;20048;-59
2021/09/06 06:31:02;;;;;;;15.98;3.35;;;;;;;9.32;63.08;99696.94;5111871;28;20054;-59
2021/09/06 06:33:30;;;;;;;4.22;1.98;;;;;;;9.41;62.66;99697.47;5093362;28;20070;-58
2021/09/06 06:36:03;;;;;;;6.50;1.80;;;;;;;9.45;63.15;99693.34;5108075;28;20043;-59
2021/09/06 06:38:29;;;;;;;2.03;1.50;;;;;;;9.53;63.07;99698.34;5106815;28;20166;-60
2021/09/06 06:40:57;;;;;;;4.68;2.10;;;;;;;9.60;61.62;99699.06;5108735;28;20044;-60
2021/09/06 06:43:29;;;;;;;6.20;1.98;;;;;;;9.67;60.75;99691.84;5107858;28;20043;-59
2021/09/06 06:45:56;;;;;;;4.10;1.88;;;;;;;9.70;59.93;99686.09;5110560;28;20361;-60
2021/09/06 06:48:27;;;;;;;2.83;1.73;;;;;;;9.77;59.29;99689.47;5107278;28;20553;-58
2021/09/06 06:50:55;;;;;;;2.70;1.90;;;;;;;9.83;57.96;99697.56;5108653;28;20044;-60
2021/09/06 06:53:22;;;;;;;4.45;1.65;;;;;;;9.91;57.83;99697.22;5107973;28;20035;-59
2021/09/06 06:55:50;;;;;;;2.70;1.73;;;;;;;10.00;57.81;99691.41;5108834;28;20032;-60
2021/09/06 06:58:18;;;;;;;6.18;1.67;;;;;;;10.26;57.10;99697.31;5107600;28;20043;-59
2021/09/06 07:00:44;;;;;;;3.03;1.83;;;;;;;10.54;55.85;99691.41;5093012;28;20043;-61
2021/09/06 07:03:09;;;;;;;3.65;1.65;;;;;;;10.69;56.55;99694.41;5110593;28;20454;-60
2021/09/06 07:05:35;;;;;;;2.58;1.63;;;;;;;10.89;55.15;99702.03;5124215;27;20087;-58
2021/09/06 07:08:01;;;;;;;4.07;1.50;;;;;;;11.04;55.17;99703.41;5130901;27;20146;-57
2021/09/06 07:10:28;;;;;;;10.57;2.28;;;;;;;11.11;55.38;99698.75;5131050;27;20039;-59
2021/09/06 07:12:56;;;;;;;2.90;1.83;;;;;;;11.00;52.89;99700.41;5111801;27;20395;-59
2021/09/06 07:15:22;;;;;;;5.57;2.10;;;;;;;10.88;54.31;99702.22;5131671;27;20051;-59
2021/09/06 07:17:48;;;;;;;4.50;1.85;;;;;;;10.60;54.26;99703.75;5113426;27;20659;-59
2021/09/06 07:20:15;;;;;;;4.88;1.73;;;;;;;10.51;53.89;99713.06;5131584;27;20113;-60
2021/09/06 07:22:43;;;;;;;3.33;1.80;;;;;;;10.52;52.64;99716.53;5109586;27;20125;-59
2021/09/06 07:25:09;;;;;;;4.00;2.00;;;;;;;10.58;52.28;99708.44;5092509;28;20051;-60
2021/09/06 07:27:35;;;;;;;1.52;1.25;;;;;;;10.82;52.11;99711.13;5091604;28;20050;-59
2021/09/06 07:30:02;;;;;;;3.60;1.65;;;;;;;10.79;52.38;99707.06;5074665;28;20044;-60
2021/09/06 07:32:28;;;;;;;2.88;2.08;;;;;;;10.87;52.44;99706.72;5106941;28;20569;-61
2021/09/06 07:34:54;;;;;;;3.30;1.55;;;;;;;11.10;52.14;99700.63;5093011;28;20052;-60
2021/09/06 07:37:21;;;;;;;5.22;2.00;;;;;;;11.39;51.59;99718.47;5109876;28;20036;-58
2021/09/06 07:39:48;;;;;;;5.25;1.98;;;;;;;11.54;49.34;99710.78;5107051;28;20566;-59
2021/09/06 07:42:15;;;;;;;2.90;1.80;;;;;;;11.54;49.39;99706.28;5109434;28;20044;-61
2021/09/06 07:44:42;;;;;;;1.67;1.50;;;;;;;11.77;48.66;99702.75;5109967;28;20477;-59
2021/09/06 07:47:08;;;;;;;4.40;1.90;;;;;;;11.98;48.09;99701.28;5108411;28;20043;-58
2021/09/06 07:49:34;;;;;;;3.45;1.70;;;;;;;12.07;47.07;99704.38;5108440;28;20136;-59
2021/09/06 07:52:02;;;;;;;2.88;1.80;;;;;;;12.02;47.53;99697.09;5108796;28;20470;-59
2021/09/06 07:54:29;;;;;;;4.85;2.17;;;;;;;12.04;47.85;99700.34;5109190;28;20477;-58
2021/09/06 07:56:56;;;;;;;6.03;2.50;;;;;;;11.91;47.16;99703.31;5109845;28;20051;-59
2021/09/06 07:59:26;;;;;;;5.60;2.13;;;;;;;11.79;46.68;99713.13;5107272;28;20073;-58
2021/09/06 08:01:51;;;;;;;3.28;1.63;;;;;;;11.65;46.46;99709.97;5107153;28;20043;-58
2021/09/06 08:04:17;;;;;;;3.92;1.80;;;;;;;11.49;45.31;99710.69;5107995;28;20044;-58
2021/09/06 08:06:45;;;;;;;2.35;1.75;;;;;;;11.60;46.70;99729.22;5107914;28;20447;-59
2021/09/06 08:09:12;;;;;;;5.03;1.80;;;;;;;11.81;44.57;99705.72;5072405;28;20054;-61
2021/09/06 08:11:38;;;;;;;4.63;1.80;;;;;;;11.89;44.38;99704.59;5090297;28;20043;-57
2021/09/06 08:14:05;;;;;;;4.60;1.77;;;;;;;11.86;45.11;99703.19;5106904;28;20545;-57
2021/09/06 08:16:32;;;;;;;3.60;1.83;;;;;;;11.80;46.02;99720.88;5072388;28;20161;-60
2021/09/06 08:18:58;;;;;;;2.45;1.67;;;;;;;11.79;45.77;99710.47;5108376;28;20044;-60
2021/09/06 08:21:24;;;;;;;4.13;2.08;;;;;;;11.77;45.85;99712.56;5109741;28;20048;-60
2021/09/06 08:23:51;;;;;;;7.47;2.20;;;;;;;11.78;45.73;99712.31;5108953;28;20056;-60
2021/09/06 08:26:17;;;;;;;4.53;2.08;;;;;;;11.74;46.18;99715.69;5109532;28;20050;-60
2021/09/06 08:28:43;;;;;;;4.70;1.65;;;;;;;11.81;45.31;99719.00;5108401;28;20047;-57
2021/09/06 08:31:09;;;;;;;3.10;2.03;;;;;;;11.94;44.88;99709.97;5109880;28;20047;-59
2021/09/06 08:33:38;;;;;;;2.58;1.52;;;;;;;12.17;45.35;99709.03;5109544;28;20425;-58
2021/09/06 08:36:08;;;;;;;3.30;1.77;;;;;;;12.28;44.33;99702.88;5090429;28;20283;-60
2021/09/06 08:38:37;;;;;;;5.53;1.77;;;;;;;12.33;46.36;99707.47;5107127;28;20054;-59
2021/09/06 08:41:06;;;;;;;6.25;2.38;;;;;;;12.39;44.82;99698.53;5107371;28;20052;-60
2021/09/06 08:43:32;;;;;;;4.85;1.80;;;;;;;12.31;45.19;99712.22;5107430;28;20049;-59
2021/09/06 08:45:59;;;;;;;2.30;1.50;;;;;;;12.07;44.90;99715.00;5107396;28;20104;-59
2021/09/06 08:48:26;;;;;;;2.47;1.70;;;;;;;11.87;45.94;99706.66;5105744;28;20040;-60
2021/09/06 08:50:53;;;;;;;2.28;1.50;;;;;;;11.85;45.35;99712.19;5107638;28;20523;-58
2021/09/06 08:53:20;;;;;;;2.40;1.52;;;;;;;11.87;45.41;99706.66;5105222;28;20050;-60
2021/09/06 08:55:45;;;;;;;5.70;1.60;;;;;;;11.97;46.00;99705.00;5107286;28;20047;-60
2021/09/06 08:58:14;;;;;;;3.20;1.70;;;;;;;12.22;44.93;99709.94;5091037;28;20043;-59
2021/09/06 09:00:48;;;;;;;2.08;1.33;;;;;;;12.33;43.89;99696.84;5092329;28;20043;-59
2021/09/06 09:03:49;;;;;;;2.58;1.65;;;;;;;12.70;45.33;99703.25;5094504;28;20043;-59
2021/09/06 09:06:37;;;;;;;3.20;1.90;;;;;;;12.94;44.72;99700.41;5109710;28;20366;-60
2021/09/06 09:09:32;;;;;;;3.25;1.73;;;;;;;13.34;43.90;99696.69;5110528;27;20092;-61
2021/09/06 09:12:16;;;;;;;4.20;2.70;;;;;;;13.40;42.53;99701.81;5081169;28;20131;-58
2021/09/06 09:15:01;;;;;;;5.88;2.05;;;;;;;13.36;42.37;99715.91;5108981;28;20083;-58
2021/09/06 09:17:53;;;;;;;4.25;1.50;;;;;;;12.93;42.21;99707.56;5109424;28;20138;-57
2021/09/06 09:20:46;;;;;;;2.55;1.70;;;;;;;12.58;43.72;99710.50;5110294;28;20591;-58
2021/09/06 09:23:47;;;;;;;4.32;2.25;;;;;;;12.56;44.46;99701.16;5107684;28;20047;-58
2021/09/06 09:26:24;;;;;;;3.20;1.80;;;;;;;12.65;44.40;99713.84;5093115;28;20043;-58
2021/09/06 09:29:08;;;;;;;2.22;1.75;;;;;;;12.85;43.40;99709.84;5090892;28;20509;-59
2021/09/06 09:31:55;;;;;;;1.90;1.50;;;;;;;13.12;43.14;99699.34;5120072;27;20164;-58
2021/09/06 09:34:43;;;;;;;4.88;1.77;;;;;;;13.30;43.00;99709.72;5146602;27;20051;-59
2021/09/06 09:37:27;;;;;;;2.85;1.90;;;;;;;13.22;42.37;99715.41;5131033;27;20102;-58
2021/09/06 09:39:57;;;;;;;2.47;1.70;;;;;;;13.08;43.29;99712.31;5130335;27;20051;-57
2021/09/06 09:42:25;;;;;;;3.33;1.52;;;;;;;13.01;42.79;99713.53;5131540;27;20057;-57
2021/09/06 09:44:56;;;;;;;2.38;1.52;;;;;;;12.89;43.90;99703.81;5147978;27;20047;-58
2021/09/06 09:47:50;;;;;;;5.70;1.80;;;;;;;13.05;43.49;99704.81;5127084;27;20073;-57
2021/09/06 09:50:17;;;;;;;5.35;2.00;;;;;;;13.13;43.33;99698.28;5147393;27;20133;-59
2021/09/06 09:52:43;;;;;;;3.10;1.80;;;;;;;13.21;41.20;99689.03;5146302;27;20038;-59
2021/09/06 09:55:13;;;;;;;3.22;1.50;;;;;;;13.12;42.36;99705.44;5111868;27;20091;-59
2021/09/06 09:57:41;;;;;;;2.20;1.35;;;;;;;13.04;42.36;99707.72;5127448;27;20042;-59
2021/09/06 10:00:08;;;;;;;2.80;1.50;;;;;;;12.93;42.92;99709.44;5147821;27;20058;-60
2021/09/06 10:02:39;;;;;;;2.60;1.40;;;;;;;12.76;42.83;99706.78;5149304;27;20039;-60
2021/09/06 10:05:06;;;;;;;3.10;1.50;;;;;;;12.78;43.12;99711.88;5127007;27;20108;-59
2021/09/06 10:07:45;;;;;;;5.05;1.73;;;;;;;12.87;43.12;99703.22;5093768;28;20581;-58
2021/09/06 10:10:21;;;;;;;2.03;1.50;;;;;;;13.03;41.25;99703.44;5110119;28;20186;-59
2021/09/06 10:13:02;;;;;;;1.85;1.40;;;;;;;13.06;40.81;99702.94;5110024;28;20524;-59
2021/09/06 10:15:32;;;;;;;1.95;1.30;;;;;;;12.78;40.88;99699.38;5112396;28;20467;-59
2021/09/06 10:18:13;;;;;;;2.38;1.50;;;;;;;12.58;41.70;99683.91;5092974;28;20043;-59
2021/09/06 10:20:40;;;;;;;3.72;2.00;;;;;;;12.69;41.38;99699.00;5092073;28;20292;-57
2021/09/06 10:23:08;;;;;;;2.78;1.60;;;;;;;12.73;41.31;99697.47;5109276;28;20047;-59
2021/09/06 10:25:37;;;;;;;1.98;1.40;;;;;;;12.79;42.63;99685.03;5120673;27;20384;-57
2021/09/06 10:28:05;;;;;;;3.05;2.05;;;;;;;12.97;42.38;99697.28;5107120;28;20559;-58
2021/09/06 10:30:33;;;;;;;3.10;1.50;;;;;;;12.95;41.51;99691.38;5110665;28;20047;-60
2021/09/06 10:32:59;;;;;;;3.92;1.55;;;;;;;12.71;40.63;99693.44;5118835;27;20408;-59
2021/09/06 10:35:28;;;;;;;2.33;1.40;;;;;;;12.61;41.50;99695.94;5129660;27;20075;-58
2021/09/06 10:38:04;;;;;;;1.38;1.27;;;;;;;12.61;41.71;99695.94;5131050;27;20031;-59
2021/09/06 10:40:36;;;;;;;2.22;1.45;;;;;;;12.59;40.73;99682.91;5132848;27;20053;-59
2021/09/06 10:43:23;;;;;;;4.97;1.70;;;;;;;12.80;41.00;99691.19;5131440;27;20122;-58
2021/09/06 10:45:51;;;;;;;3.17;1.67;;;;;;;12.90;41.69;99685.97;5132077;27;20074;-61
2021/09/06 10:48:21;;;;;;;4.93;1.55;;;;;;;13.03;41.99;99679.50;5095011;27;20034;-60
2021/09/06 10:50:49;;;;;;;3.40;1.70;;;;;;;13.08;41.53;99688.34;5129108;27;20042;-61
2021/09/06 10:53:20;;;;;;;2.15;1.60;;;;;;;13.04;41.68;99687.25;5132583;27;20043;-58
2021/09/06 10:55:48;;;;;;;3.42;1.50;;;;;;;12.99;41.38;99689.03;5111315;28;20046;-59
2021/09/06 10:58:14;;;;;;;2.45;1.63;;;;;;;12.91;42.13;99683.09;5125190;27;20041;-59
2021/09/06 11:00:41;;;;;;;3.88;2.00;;;;;;;12.81;42.29;99688.25;5127369;27;20085;-59
2021/09/06 11:03:07;;;;;;;3.28;1.80;;;;;;;12.68;42.25;99683.28;5126005;27;20036;-59
2021/09/06 11:05:32;;;;;;;4.95;1.95;;;;;;;12.56;42.38;99686.03;5108191;28;20874;-59
2021/09/06 11:08:07;;;;;;;3.53;1.65;;;;;;;12.46;41.52;99678.69;5109191;28;20043;-57
2021/09/06 11:10:35;;;;;;;2.70;1.70;;;;;;;12.43;42.14;99679.19;5075021;28;20066;-58
2021/09/06 11:13:02;;;;;;;4.25;2.00;;;;;;;12.44;41.98;99675.50;5110724;28;20520;-59
2021/09/06 11:15:30;;;;;;;6.65;2.90;;;;;;;12.53;42.21;99669.75;5108775;28;20059;-60
2021/09/06 11:18:01;;;;;;;6.00;2.65;;;;;;;12.72;41.96;99669.25;5110033;28;20075;-59
2021/09/06 11:20:29;;;;;;;4.70;1.83;;;;;;;12.82;41.51;99667.78;5091996;28;20071;-60
2021/09/06 11:23:00;;;;;;;2.05;1.42;;;;;;;12.84;39.69;99666.47;5111772;28;20035;-59
2021/09/06 11:25:27;;;;;;;1.77;1.60;;;;;;;12.97;40.03;99665.34;5077436;28;20071;-59
2021/09/06 11:28:04;;;;;;;2.88;1.40;;;;;;;13.16;39.71;99671.97;5110957;28;20047;-58
2021/09/06 11:30:33;;;;;;;1.80;1.40;;;;;;;13.34;39.45;99667.41;5111765;28;20478;-60
2021/09/06 11:33:02;;;;;;;3.17;1.75;;;;;;;13.46;37.72;99662.75;5111486;28;20096;-59
2021/09/06 11:35:28;;;;;;;5.10;1.95;;;;;;;13.53;36.85;99666.03;5123090;27;20039;-59
2021/09/06 11:37:55;;;;;;;2.33;1.17;;;;;;;13.60;36.12;99656.00;5096206;27;20038;-58
2021/09/06 11:40:21;;;;;;;1.80;1.10;;;;;;;13.80;36.26;99650.06;5131473;27;20044;-59
2021/09/06 11:42:47;;;;;;;2.13;1.65;;;;;;;13.82;37.40;99657.78;5131022;27;20179;-60
2021/09/06 11:45:18;;;;;;;4.45;1.50;;;;;;;13.78;39.32;99662.81;5132067;27;20039;-58
2021/09/06 11:47:44;;;;;;;2.70;1.77;;;;;;;13.57;40.01;99663.69;5131234;27;20054;-58